createdAt,value
2023-04-02T00:01:00.529Z,96955.06
2023-04-02T00:03:46.037Z,96961.81
2023-04-02T00:06:45.043Z,96965.91
2023-04-02T00:09:37.758Z,96701.56
2023-04-02T00:12:23.476Z,96947.75
2023-04-02T00:15:13.061Z,96889.41
2023-04-02T00:17:59.621Z,96786.50
2023-04-02T00:20:51.386Z,96907.69
2023-04-02T00:23:38.912Z,96938.47
2023-04-02T00:26:40.070Z,96915.63
2023-04-02T00:29:26.462Z,96928.06
2023-04-02T00:32:20.747Z,96928.66
2023-04-02T00:35:21.407Z,96810.06
2023-04-02T00:38:07.202Z,96814.41
2023-04-02T00:40:56.763Z,96823.06
2023-04-02T00:43:46.873Z,96917.59
2023-04-02T00:46:46.904Z,96773.53
2023-04-02T00:49:36.805Z,96779.78
2023-04-02T00:52:26.175Z,96962.72
2023-04-02T00:55:39.373Z,96951.53
2023-04-02T00:58:35.587Z,96951.53
2023-04-02T01:01:29.281Z,96948.41
2023-04-02T01:04:38.480Z,96957.81
2023-04-02T01:07:56.205Z,96785.19
2023-04-02T01:11:04.286Z,96962.38
2023-04-02T01:14:29.566Z,96960.94
2023-04-02T01:17:37.271Z,96952.25
2023-04-02T01:21:01.900Z,96956.34
2023-04-02T01:24:08.779Z,96915.69
2023-04-02T01:27:04.682Z,96957.81
2023-04-02T01:29:56.797Z,96965.25
2023-04-02T01:32:43.122Z,96957.09
2023-04-02T01:35:34.291Z,96949.16
2023-04-02T01:38:41.262Z,96779.38
2023-04-02T01:41:36.422Z,96795.09
2023-04-02T01:44:33.431Z,96901.69
2023-04-02T01:47:25.556Z,96955.50
2023-04-02T01:50:37.012Z,96939.97
2023-04-02T01:53:25.654Z,96808.91
2023-04-02T01:56:11.076Z,96828.25
2023-04-02T01:58:58.589Z,97004.94
2023-04-02T02:01:52.576Z,96919.47
2023-04-02T02:04:39.267Z,96949.03
2023-04-02T02:07:28.227Z,96922.63
2023-04-02T02:10:22.022Z,96982.75
2023-04-02T02:13:11.416Z,96969.03
2023-04-02T02:15:59.260Z,96808.25
2023-04-02T02:18:49.077Z,96910.56
2023-04-02T02:21:49.789Z,96853.41
2023-04-02T02:24:37.095Z,96845.00
2023-04-02T02:27:25.963Z,96986.63
2023-04-02T02:30:32.481Z,96989.00
2023-04-02T02:33:22.218Z,96989.50
2023-04-02T02:36:30.815Z,96994.56
2023-04-02T02:39:33.275Z,97017.88
2023-04-02T02:42:24.760Z,96860.63
2023-04-02T02:45:18.279Z,96789.94
2023-04-02T02:48:10.382Z,96969.28
2023-04-02T02:50:56.718Z,96952.19
2023-04-02T02:53:50.646Z,97024.13
2023-04-02T02:56:43.866Z,97001.91
2023-04-02T02:59:31.254Z,96966.56
2023-04-02T03:02:18.883Z,96907.03
2023-04-02T03:05:05.899Z,96986.09
2023-04-02T03:07:55.498Z,97006.91
2023-04-02T03:10:54.069Z,96999.84
2023-04-02T03:13:47.297Z,97036.13
2023-04-02T03:16:40.856Z,96849.22
2023-04-02T03:19:57.601Z,97012.84
2023-04-02T03:22:49.704Z,96838.91
2023-04-02T03:26:09.682Z,97015.50
2023-04-02T03:29:16.453Z,97029.97
2023-04-02T03:32:21.278Z,97024.09
2023-04-02T03:35:22.464Z,97025.50
2023-04-02T03:38:25.416Z,96868.34
2023-04-02T03:41:35.856Z,97053.44
2023-04-02T03:44:31.706Z,97064.88
2023-04-02T03:47:27.608Z,96936.72
2023-04-02T03:50:23.901Z,97062.72
2023-04-02T03:53:12.933Z,96886.59
2023-04-02T03:56:00.644Z,97018.88
2023-04-02T03:58:55.113Z,96895.22
2023-04-02T04:01:56.755Z,97080.97
2023-04-02T04:04:44.957Z,96978.56
2023-04-02T04:07:43.358Z,97008.94
2023-04-02T04:10:31.178Z,96922.69
2023-04-02T04:13:22.451Z,97053.00
2023-04-02T04:16:14.905Z,96867.91
2023-04-02T04:19:08.091Z,96904.03
2023-04-02T04:21:57.177Z,97059.03
2023-04-02T04:24:49.038Z,97006.47
2023-04-02T04:27:52.876Z,97066.28
2023-04-02T04:30:50.957Z,96898.06
2023-04-02T04:33:46.235Z,97049.03
2023-04-02T04:37:25.165Z,97082.78
2023-04-02T04:40:26.455Z,96907.09
2023-04-02T04:43:25.107Z,97038.56
2023-04-02T04:46:16.690Z,96997.97
2023-04-02T04:49:11.753Z,97105.25
2023-04-02T04:52:05.946Z,96943.50
2023-04-02T04:54:52.737Z,96915.72
2023-04-02T04:57:43.572Z,96993.31
2023-04-02T05:00:48.637Z,97114.97
2023-04-02T05:04:09.721Z,97126.63
2023-04-02T05:07:03.023Z,97057.00
2023-04-02T05:10:07.851Z,97112.41
2023-04-02T05:13:02.843Z,97022.69
2023-04-02T05:16:01.508Z,96944.44
2023-04-02T05:18:56.766Z,97022.94
2023-04-02T05:22:19.527Z,97108.31
2023-04-02T05:25:37.204Z,97103.72
2023-04-02T05:28:46.303Z,97108.28
2023-04-02T05:31:44.202Z,97068.19
2023-04-02T05:34:40.060Z,97073.97
2023-04-02T05:37:30.386Z,97103.19
2023-04-02T05:40:28.644Z,96990.03
2023-04-02T05:43:18.357Z,97112.16
2023-04-02T05:46:14.782Z,97080.69
2023-04-02T05:49:00.933Z,97117.22
2023-04-02T05:51:50.718Z,96963.88
2023-04-02T05:54:47.428Z,97124.50
2023-04-02T05:57:48.351Z,97063.06
2023-04-02T06:00:39.531Z,97122.63
2023-04-02T06:03:40.530Z,97158.75
2023-04-02T06:06:29.214Z,97131.75
2023-04-02T06:09:29.055Z,97097.50
2023-04-02T06:12:14.566Z,97161.16
2023-04-02T06:15:00.861Z,97106.00
2023-04-02T06:17:59.787Z,97145.22
2023-04-02T06:20:46.439Z,97122.38
2023-04-02T06:23:41.666Z,96999.63
2023-04-02T06:26:42.729Z,96982.03
2023-04-02T06:29:41.706Z,97001.09
2023-04-02T06:32:32.429Z,97056.53
2023-04-02T06:35:18.415Z,97141.19
2023-04-02T06:38:19.870Z,96995.69
2023-04-02T06:41:21.682Z,97025.38
2023-04-02T06:44:38.268Z,97180.59
2023-04-02T06:47:49.435Z,97130.03
2023-04-02T06:51:11.119Z,97189.34
2023-04-02T06:53:57.613Z,97027.53
2023-04-02T06:56:51.694Z,97055.84
2023-04-02T06:59:44.438Z,97084.38
2023-04-02T07:02:39.928Z,97043.94
2023-04-02T07:05:28.465Z,97061.19
2023-04-02T07:08:13.710Z,97109.91
2023-04-02T07:10:59.200Z,97180.09
2023-04-02T07:13:45.719Z,97217.50
2023-04-02T07:16:33.983Z,97147.94
2023-04-02T07:19:22.762Z,97114.19
2023-04-02T07:22:12.358Z,97177.44
2023-04-02T07:25:00.186Z,97251.03
2023-04-02T07:27:45.438Z,97231.84
2023-04-02T07:30:30.821Z,97065.28
2023-04-02T07:33:19.897Z,97276.81
2023-04-02T07:36:06.955Z,97198.72
2023-04-02T07:38:52.904Z,97171.97
2023-04-02T07:41:56.782Z,97260.53
2023-04-02T07:44:42.624Z,97256.56
2023-04-02T07:47:28.316Z,97256.72
2023-04-02T07:50:14.161Z,97235.50
2023-04-02T07:52:59.854Z,97243.28
2023-04-02T07:55:45.487Z,97098.00
2023-04-02T07:58:32.449Z,97272.13
2023-04-02T08:01:27.321Z,97231.78
2023-04-02T08:04:19.381Z,97218.88
2023-04-02T08:07:04.864Z,97077.91
2023-04-02T08:09:50.472Z,97277.19
2023-04-02T08:12:36.603Z,97101.69
2023-04-02T08:15:21.967Z,97099.06
2023-04-02T08:18:07.543Z,97266.59
2023-04-02T08:20:53.491Z,97281.09
2023-04-02T08:23:38.923Z,97280.81
2023-04-02T08:26:24.533Z,97223.06
2023-04-02T08:29:09.883Z,97291.44
2023-04-02T08:31:56.341Z,97292.16
2023-04-02T08:34:43.817Z,97231.97
2023-04-02T08:37:30.796Z,97297.41
2023-04-02T08:40:42.655Z,97271.47
2023-04-02T08:43:48.757Z,97289.16
2023-04-02T08:46:59.127Z,97289.50
2023-04-02T08:49:57.657Z,97207.22
2023-04-02T08:52:43.293Z,97312.22
2023-04-02T08:55:32.902Z,97326.03
2023-04-02T08:58:22.872Z,97151.22
2023-04-02T09:01:31.706Z,97239.94
2023-04-02T09:04:20.529Z,97304.84
2023-04-02T09:07:10.768Z,97226.75
2023-04-02T09:09:59.207Z,97341.75
2023-04-02T09:12:53.317Z,97345.09
2023-04-02T09:15:40.296Z,97303.72
2023-04-02T09:18:30.067Z,97356.16
2023-04-02T09:21:21.987Z,97363.72
2023-04-02T09:24:12.113Z,97182.59
2023-04-02T09:26:57.730Z,97169.09
2023-04-02T09:29:45.841Z,97350.94
2023-04-02T09:32:46.444Z,97382.78
2023-04-02T09:35:51.430Z,97195.94
2023-04-02T09:38:37.519Z,97325.06
2023-04-02T09:41:28.055Z,97213.94
2023-04-02T09:44:13.622Z,97193.16
2023-04-02T09:47:04.071Z,97338.19
2023-04-02T09:49:49.655Z,97373.22
2023-04-02T09:52:35.262Z,97328.56
2023-04-02T09:55:22.443Z,97353.41
2023-04-02T09:58:16.894Z,97198.22
2023-04-02T10:01:03.076Z,97378.41
2023-04-02T10:03:49.360Z,97194.41
2023-04-02T10:06:35.624Z,97335.94
2023-04-02T10:09:32.533Z,97390.03
2023-04-02T10:12:17.989Z,97365.53
2023-04-02T10:15:06.127Z,97365.28
2023-04-02T10:18:03.654Z,97248.41
2023-04-02T10:20:52.686Z,97404.69
2023-04-02T10:23:38.837Z,97344.63
2023-04-02T10:26:46.785Z,97258.56
2023-04-02T10:29:35.171Z,97438.44
2023-04-02T10:32:31.602Z,97442.06
2023-04-02T10:35:22.303Z,97405.28
2023-04-02T10:38:29.416Z,97419.28
2023-04-02T10:41:26.864Z,97417.38
2023-04-02T10:44:33.896Z,97242.03
2023-04-02T10:48:00.884Z,97432.50
2023-04-02T10:50:57.316Z,97375.44
2023-04-02T10:53:59.585Z,97255.81
2023-04-02T10:56:51.150Z,97252.03
2023-04-02T10:59:42.623Z,97316.59
2023-04-02T11:02:37.577Z,97468.72
2023-04-02T11:05:27.217Z,97466.38
2023-04-02T11:08:25.841Z,97447.03
2023-04-02T11:11:26.429Z,97436.88
2023-04-02T11:14:20.969Z,97432.47
2023-04-02T11:17:06.358Z,97448.75
2023-04-02T11:19:52.913Z,97412.50
2023-04-02T11:22:38.836Z,97451.34
2023-04-02T11:25:25.260Z,97449.88
2023-04-02T11:28:31.881Z,97474.06
2023-04-02T11:31:21.024Z,97467.91
2023-04-02T11:34:06.615Z,97424.31
2023-04-02T11:36:54.901Z,97475.97
2023-04-02T11:39:56.837Z,97495.59
2023-04-02T11:42:43.608Z,97313.03
2023-04-02T11:45:28.657Z,97473.63
2023-04-02T11:48:16.998Z,97500.53
2023-04-02T11:51:21.528Z,97478.44
2023-04-02T11:54:25.448Z,97297.41
2023-04-02T11:57:32.306Z,97383.25
2023-04-02T12:00:29.008Z,97307.72
2023-04-02T12:03:42.404Z,97493.09
2023-04-02T12:06:42.489Z,97503.97
2023-04-02T12:09:47.059Z,97456.25
2023-04-02T12:12:43.133Z,97441.66
2023-04-02T12:15:42.595Z,97492.31
2023-04-02T12:18:28.459Z,97324.66
2023-04-02T12:21:23.559Z,97465.75
2023-04-02T12:24:23.777Z,97523.22
2023-04-02T12:27:27.686Z,97488.50
2023-04-02T12:30:31.879Z,97486.44
2023-04-02T12:33:20.084Z,97494.16
2023-04-02T12:36:14.085Z,97534.13
2023-04-02T12:38:59.530Z,97415.81
2023-04-02T12:41:45.095Z,97446.50
2023-04-02T12:44:31.322Z,97468.28
2023-04-02T12:47:17.662Z,97246.16
2023-04-02T12:50:03.841Z,97311.50
2023-04-02T12:52:55.852Z,97326.91
2023-04-02T12:55:48.598Z,97513.41
2023-04-02T12:58:37.233Z,97513.28
2023-04-02T13:01:27.631Z,97514.69
2023-04-02T13:04:13.953Z,97491.28
2023-04-02T13:07:00.598Z,97537.69
2023-04-02T13:09:49.299Z,97345.97
2023-04-02T13:12:39.623Z,97525.81
2023-04-02T13:15:29.232Z,97490.53
2023-04-02T13:18:23.347Z,97461.16
2023-04-02T13:21:15.015Z,97526.25
2023-04-02T13:24:00.726Z,97341.28
2023-04-02T13:26:49.227Z,97470.50
2023-04-02T13:29:36.385Z,97535.50
2023-04-02T13:32:22.317Z,97334.94
2023-04-02T13:35:08.114Z,97534.16
2023-04-02T13:37:53.785Z,97544.47
2023-04-02T13:40:39.208Z,97395.38
2023-04-02T13:43:24.550Z,97358.50
2023-04-02T13:46:18.941Z,97481.03
2023-04-02T13:49:04.649Z,97365.78
2023-04-02T13:51:59.201Z,97405.66
2023-04-02T13:54:51.201Z,97489.00
2023-04-02T13:57:37.456Z,97546.84
2023-04-02T14:00:23.419Z,97529.81
2023-04-02T14:03:14.171Z,97419.13
2023-04-02T14:06:26.948Z,97562.66
2023-04-02T14:09:22.050Z,97560.66
2023-04-02T14:12:23.663Z,97591.72
2023-04-02T14:15:22.633Z,97458.78
2023-04-02T14:18:42.504Z,97565.16
2023-04-02T14:21:58.588Z,97570.28
2023-04-02T14:25:19.964Z,97582.47
2023-04-02T14:28:08.573Z,97382.69
2023-04-02T14:30:54.177Z,97591.41
2023-04-02T14:33:52.021Z,97569.03
2023-04-02T14:36:46.055Z,97568.41
2023-04-02T14:39:40.457Z,97589.97
2023-04-02T14:42:36.737Z,97373.47
2023-04-02T14:45:22.483Z,97484.00
2023-04-02T14:48:24.985Z,97603.59
2023-04-02T14:51:32.025Z,97508.78
2023-04-02T14:54:35.974Z,97486.75
2023-04-02T14:57:30.516Z,97435.09
2023-04-02T15:01:13.790Z,97583.34
2023-04-02T15:04:08.826Z,97400.72
2023-04-02T15:07:01.701Z,97541.53
2023-04-02T15:09:54.763Z,97386.75
2023-04-02T15:12:41.138Z,97579.13
2023-04-02T15:15:44.635Z,97607.03
2023-04-02T15:18:30.420Z,97567.31
2023-04-02T15:21:19.080Z,97637.66
2023-04-02T15:24:19.293Z,97595.97
2023-04-02T15:27:32.893Z,97418.97
2023-04-02T15:30:25.199Z,97517.97
2023-04-02T15:33:26.966Z,97630.22
2023-04-02T15:36:37.282Z,97617.19
2023-04-02T15:39:33.231Z,97653.19
2023-04-02T15:42:23.708Z,97576.13
2023-04-02T15:45:12.987Z,97628.72
2023-04-02T15:48:35.923Z,97625.81
2023-04-02T15:51:46.350Z,97640.47
2023-04-02T15:54:54.693Z,97647.75
2023-04-02T15:57:54.659Z,97655.78
2023-04-02T16:00:46.475Z,97651.25
2023-04-02T16:03:56.525Z,97662.09
2023-04-02T16:07:10.165Z,97660.28
2023-04-02T16:10:06.332Z,97669.69
2023-04-02T16:12:53.688Z,97666.66
2023-04-02T16:15:47.008Z,97661.38
2023-04-02T16:19:16.676Z,97581.47
2023-04-02T16:22:17.060Z,97601.03
2023-04-02T16:25:16.270Z,97603.22
2023-04-02T16:28:14.272Z,97706.00
2023-04-02T16:31:06.101Z,97687.28
2023-04-02T16:34:09.694Z,97541.91
2023-04-02T16:37:11.051Z,97679.06
2023-04-02T16:40:26.022Z,97697.63
2023-04-02T16:43:17.578Z,97693.19
2023-04-02T16:46:18.538Z,97708.25
2023-04-02T16:49:22.125Z,97734.66
2023-04-02T16:52:18.455Z,97734.28
2023-04-02T16:55:26.582Z,97497.34
2023-04-02T16:58:24.138Z,97522.97
2023-04-02T17:01:27.506Z,97693.84
2023-04-02T17:04:28.238Z,97751.78
2023-04-02T17:07:40.668Z,97770.00
2023-04-02T17:10:32.471Z,97682.16
2023-04-02T17:13:42.767Z,97736.94
2023-04-02T17:16:36.864Z,97680.84
2023-04-02T17:19:25.975Z,97602.03
2023-04-02T17:22:18.811Z,97743.56
2023-04-02T17:25:05.518Z,97541.75
2023-04-02T17:27:54.599Z,97711.38
2023-04-02T17:30:44.760Z,97778.47
2023-04-02T17:33:31.238Z,97767.88
2023-04-02T17:36:26.063Z,97766.94
2023-04-02T17:39:18.132Z,97763.13
2023-04-02T17:42:31.401Z,97759.09
2023-04-02T17:45:31.922Z,97734.97
2023-04-02T17:48:39.809Z,97771.59
2023-04-02T17:51:39.587Z,97766.50
2023-04-02T17:55:06.743Z,97767.59
2023-04-02T17:58:05.149Z,97777.84
2023-04-02T18:01:15.687Z,97776.41
2023-04-02T18:04:19.270Z,97605.31
2023-04-02T18:07:38.794Z,97797.84
2023-04-02T18:10:35.573Z,97775.28
2023-04-02T18:13:35.132Z,97780.06
2023-04-02T18:16:45.607Z,97803.91
2023-04-02T18:19:44.544Z,97615.22
2023-04-02T18:22:51.342Z,97795.47
2023-04-02T18:25:54.122Z,97602.59
2023-04-02T18:28:39.636Z,97792.91
2023-04-02T18:31:54.807Z,97797.69
2023-04-02T18:35:06.892Z,97652.72
2023-04-02T18:38:06.176Z,97837.66
2023-04-02T18:41:30.474Z,97804.66
2023-04-02T18:44:40.770Z,97803.19
2023-04-02T18:47:42.038Z,97843.91
2023-04-02T18:50:36.603Z,97803.78
2023-04-02T18:53:25.825Z,97765.88
2023-04-02T18:56:19.765Z,97752.50
2023-04-02T18:59:34.163Z,97814.91
2023-04-02T19:02:46.820Z,97760.72
2023-04-02T19:05:40.533Z,97837.66
2023-04-02T19:08:36.963Z,97619.97
2023-04-02T19:11:29.591Z,97733.25
2023-04-02T19:14:20.545Z,97817.47
2023-04-02T19:17:18.804Z,97810.50
2023-04-02T19:20:10.871Z,97842.03
2023-04-02T19:23:27.671Z,97753.03
2023-04-02T19:26:18.387Z,97606.97
2023-04-02T19:29:30.409Z,97820.28
2023-04-02T19:32:52.164Z,97819.38
2023-04-02T19:35:53.764Z,97839.53
2023-04-02T19:39:14.959Z,97815.50
2023-04-02T19:42:11.829Z,97619.38
2023-04-02T19:44:57.734Z,97791.16
2023-04-02T19:47:43.025Z,97803.22
2023-04-02T19:50:29.264Z,97698.66
2023-04-02T19:53:16.182Z,97717.50
2023-04-02T19:56:01.413Z,97780.34
2023-04-02T19:58:46.759Z,97823.41
2023-04-02T20:01:32.066Z,97668.78
2023-04-02T20:04:17.431Z,97836.59
2023-04-02T20:07:02.906Z,97827.78
2023-04-02T20:09:48.367Z,97628.50
2023-04-02T20:12:33.848Z,97628.09
2023-04-02T20:15:20.418Z,97784.72
2023-04-02T20:18:06.591Z,97838.44
2023-04-02T20:20:52.567Z,97849.78
2023-04-02T20:23:38.235Z,97842.06
2023-04-02T20:26:23.861Z,97835.84
2023-04-02T20:29:09.533Z,97838.78
2023-04-02T20:31:55.225Z,97781.94
2023-04-02T20:34:40.552Z,97846.28
2023-04-02T20:37:25.907Z,97645.66
2023-04-02T20:40:11.441Z,97788.13
2023-04-02T20:42:56.993Z,97664.28
2023-04-02T20:45:57.608Z,97866.22
2023-04-02T20:48:43.754Z,97840.03
2023-04-02T20:51:29.662Z,97878.31
2023-04-02T20:54:15.751Z,97845.69
2023-04-02T20:57:01.579Z,97741.19
2023-04-02T20:59:47.061Z,97666.81
2023-04-02T21:02:34.790Z,97847.53
2023-04-02T21:05:20.770Z,97759.13
2023-04-02T21:08:07.508Z,97768.28
2023-04-02T21:10:53.241Z,97654.28
2023-04-02T21:13:39.206Z,97825.09
2023-04-02T21:16:28.701Z,97881.56
2023-04-02T21:19:14.546Z,97847.50
2023-04-02T21:22:00.175Z,97794.22
2023-04-02T21:24:45.876Z,97854.81
2023-04-02T21:27:31.608Z,97661.97
2023-04-02T21:30:17.157Z,97649.88
2023-04-02T21:33:02.758Z,97875.00
2023-04-02T21:35:47.957Z,97703.75
2023-04-02T21:38:33.783Z,97858.13
2023-04-02T21:41:28.713Z,97827.34
2023-04-02T21:44:15.347Z,97690.53
2023-04-02T21:47:01.024Z,97862.16
2023-04-02T21:49:46.329Z,97868.75
2023-04-02T21:52:32.388Z,97831.34
2023-04-02T21:55:17.748Z,97862.72
2023-04-02T21:58:03.202Z,97864.38
2023-04-02T22:00:48.611Z,97832.50
2023-04-02T22:03:35.128Z,97867.34
2023-04-02T22:06:21.851Z,97660.53
2023-04-02T22:09:11.564Z,97858.13
2023-04-02T22:12:02.327Z,97821.78
2023-04-02T22:14:48.004Z,97722.44
2023-04-02T22:17:33.382Z,97682.84
2023-04-02T22:20:18.664Z,97682.47
2023-04-02T22:23:04.141Z,97680.31
2023-04-02T22:25:49.406Z,97777.97
2023-04-02T22:28:36.098Z,97880.88
2023-04-02T22:31:24.041Z,97669.84
2023-04-02T22:34:09.668Z,97731.16
2023-04-02T22:36:56.075Z,97813.25
2023-04-02T22:39:41.657Z,97845.28
2023-04-02T22:42:27.435Z,97741.44
2023-04-02T22:45:12.961Z,97759.31
2023-04-02T22:47:58.627Z,97688.44
2023-04-02T22:50:49.561Z,97923.69
2023-04-02T22:53:36.517Z,97883.75
2023-04-02T22:56:27.608Z,97702.50
2023-04-02T22:59:12.957Z,97926.56
2023-04-02T23:01:58.536Z,97884.78
2023-04-02T23:04:48.451Z,97709.41
2023-04-02T23:07:35.427Z,97687.78
2023-04-02T23:10:21.079Z,97721.31
2023-04-02T23:13:06.287Z,97854.31
2023-04-02T23:15:51.568Z,97852.44
2023-04-02T23:18:38.012Z,97901.38
2023-04-02T23:21:24.444Z,97758.91
2023-04-02T23:24:12.244Z,97838.31
2023-04-02T23:26:57.698Z,97686.94
2023-04-02T23:29:43.175Z,97808.31
2023-04-02T23:32:28.599Z,97682.59
2023-04-02T23:35:13.986Z,97922.06
2023-04-02T23:37:59.279Z,97894.63
2023-04-02T23:40:44.517Z,97814.34
2023-04-02T23:43:30.104Z,97881.16
2023-04-02T23:46:15.708Z,97685.81
2023-04-02T23:49:02.702Z,97913.94
2023-04-02T23:51:48.261Z,97867.44
2023-04-02T23:54:33.598Z,97741.09
2023-04-02T23:57:19.300Z,97880.28
